sensor_id;sensor_type;location;lat;lon;timestamp;temperature;humidity
30148;DHT22;16960;49.404;8.248;2023-04-08T00:01:33;20.30;37.20
30148;DHT22;16960;49.404;8.248;2023-04-08T00:04:00;20.40;37.20
30148;DHT22;16960;49.404;8.248;2023-04-08T00:06:29;20.40;37.20
30148;DHT22;16960;49.404;8.248;2023-04-08T00:08:56;20.30;37.30
30148;DHT22;16960;49.404;8.248;2023-04-08T00:11:23;20.30;37.30
30148;DHT22;16960;49.404;8.248;2023-04-08T00:13:50;20.30;37.40
30148;DHT22;16960;49.404;8.248;2023-04-08T00:16:17;20.30;37.30
30148;DHT22;16960;49.404;8.248;2023-04-08T00:18:44;20.30;37.30
30148;DHT22;16960;49.404;8.248;2023-04-08T00:21:11;20.30;37.30
30148;DHT22;16960;49.404;8.248;2023-04-08T00:23:42;20.30;37.30
30148;DHT22;16960;49.404;8.248;2023-04-08T00:26:09;20.30;37.30
30148;DHT22;16960;49.404;8.248;2023-04-08T00:28:36;20.30;37.30
30148;DHT22;16960;49.404;8.248;2023-04-08T00:31:04;20.30;37.30
30148;DHT22;16960;49.404;8.248;2023-04-08T00:33:31;20.30;37.30
30148;DHT22;16960;49.404;8.248;2023-04-08T00:35:58;20.30;37.30
30148;DHT22;16960;49.404;8.248;2023-04-08T00:38:25;20.30;37.40
30148;DHT22;16960;49.404;8.248;2023-04-08T00:40:53;20.30;37.40
30148;DHT22;16960;49.404;8.248;2023-04-08T00:43:20;20.30;37.40
30148;DHT22;16960;49.404;8.248;2023-04-08T00:45:47;20.30;37.40
30148;DHT22;16960;49.404;8.248;2023-04-08T00:48:14;20.30;37.40
30148;DHT22;16960;49.404;8.248;2023-04-08T00:50:42;20.30;37.40
30148;DHT22;16960;49.404;8.248;2023-04-08T00:53:10;20.30;37.40
30148;DHT22;16960;49.404;8.248;2023-04-08T00:55:38;20.20;37.30
30148;DHT22;16960;49.404;8.248;2023-04-08T00:58:06;20.20;37.40
30148;DHT22;16960;49.404;8.248;2023-04-08T01:00:35;20.30;37.40
30148;DHT22;16960;49.404;8.248;2023-04-08T01:03:10;20.20;37.40
30148;DHT22;16960;49.404;8.248;2023-04-08T01:05:47;20.20;37.40
30148;DHT22;16960;49.404;8.248;2023-04-08T01:08:17;20.20;37.40
30148;DHT22;16960;49.404;8.248;2023-04-08T01:10:46;20.20;37.40
30148;DHT22;16960;49.404;8.248;2023-04-08T01:13:18;20.20;37.40
30148;DHT22;16960;49.404;8.248;2023-04-08T01:15:48;20.20;37.40
30148;DHT22;16960;49.404;8.248;2023-04-08T01:18:16;20.20;37.40
30148;DHT22;16960;49.404;8.248;2023-04-08T01:20:43;20.20;37.40
30148;DHT22;16960;49.404;8.248;2023-04-08T01:23:17;20.20;37.40
30148;DHT22;16960;49.404;8.248;2023-04-08T01:25:48;20.20;37.40
30148;DHT22;16960;49.404;8.248;2023-04-08T01:28:17;20.20;37.40
30148;DHT22;16960;49.404;8.248;2023-04-08T01:30:46;20.10;37.40
30148;DHT22;16960;49.404;8.248;2023-04-08T01:33:16;20.20;37.50
30148;DHT22;16960;49.404;8.248;2023-04-08T01:35:44;20.20;37.50
30148;DHT22;16960;49.404;8.248;2023-04-08T01:38:14;20.20;37.40
30148;DHT22;16960;49.404;8.248;2023-04-08T01:40:43;20.20;37.40
30148;DHT22;16960;49.404;8.248;2023-04-08T01:43:13;20.10;37.40
30148;DHT22;16960;49.404;8.248;2023-04-08T01:45:43;20.10;37.50
30148;DHT22;16960;49.404;8.248;2023-04-08T01:48:11;20.20;37.40
30148;DHT22;16960;49.404;8.248;2023-04-08T01:50:39;20.10;37.40
30148;DHT22;16960;49.404;8.248;2023-04-08T01:53:09;20.20;37.40
30148;DHT22;16960;49.404;8.248;2023-04-08T01:55:36;20.20;37.40
30148;DHT22;16960;49.404;8.248;2023-04-08T01:58:06;20.10;37.50
30148;DHT22;16960;49.404;8.248;2023-04-08T02:00:37;20.10;37.50
30148;DHT22;16960;49.404;8.248;2023-04-08T02:03:05;20.10;37.50
30148;DHT22;16960;49.404;8.248;2023-04-08T02:05:33;20.10;37.50
30148;DHT22;16960;49.404;8.248;2023-04-08T02:08:00;20.10;37.50
30148;DHT22;16960;49.404;8.248;2023-04-08T02:10:27;20.10;37.50
30148;DHT22;16960;49.404;8.248;2023-04-08T02:12:55;20.10;37.40
30148;DHT22;16960;49.404;8.248;2023-04-08T02:15:22;20.10;37.40
30148;DHT22;16960;49.404;8.248;2023-04-08T02:17:54;20.10;37.40
30148;DHT22;16960;49.404;8.248;2023-04-08T02:20:23;20.10;37.40
30148;DHT22;16960;49.404;8.248;2023-04-08T02:22:58;20.10;37.30
30148;DHT22;16960;49.404;8.248;2023-04-08T02:25:28;20.10;37.30
30148;DHT22;16960;49.404;8.248;2023-04-08T02:27:56;20.10;37.30
30148;DHT22;16960;49.404;8.248;2023-04-08T02:30:26;20.20;37.30
30148;DHT22;16960;49.404;8.248;2023-04-08T02:32:56;20.10;37.40
30148;DHT22;16960;49.404;8.248;2023-04-08T02:35:23;20.10;37.50
30148;DHT22;16960;49.404;8.248;2023-04-08T02:37:51;20.10;37.50
30148;DHT22;16960;49.404;8.248;2023-04-08T02:40:23;20.10;37.50
30148;DHT22;16960;49.404;8.248;2023-04-08T02:42:50;20.10;37.50
30148;DHT22;16960;49.404;8.248;2023-04-08T02:45:17;20.10;37.50
30148;DHT22;16960;49.404;8.248;2023-04-08T02:47:44;20.10;37.50
30148;DHT22;16960;49.404;8.248;2023-04-08T02:50:14;20.10;37.50
30148;DHT22;16960;49.404;8.248;2023-04-08T02:52:41;20.00;37.40
30148;DHT22;16960;49.404;8.248;2023-04-08T02:55:09;20.00;37.40
30148;DHT22;16960;49.404;8.248;2023-04-08T02:57:37;20.00;37.40
30148;DHT22;16960;49.404;8.248;2023-04-08T03:00:06;20.00;37.40
30148;DHT22;16960;49.404;8.248;2023-04-08T03:02:33;20.10;37.40
30148;DHT22;16960;49.404;8.248;2023-04-08T03:05:00;20.10;37.50
30148;DHT22;16960;49.404;8.248;2023-04-08T03:07:28;20.00;37.40
30148;DHT22;16960;49.404;8.248;2023-04-08T03:09:55;20.10;37.50
30148;DHT22;16960;49.404;8.248;2023-04-08T03:12:22;20.10;37.40
30148;DHT22;16960;49.404;8.248;2023-04-08T03:14:49;20.00;37.40
30148;DHT22;16960;49.404;8.248;2023-04-08T03:17:16;20.10;37.50
30148;DHT22;16960;49.404;8.248;2023-04-08T03:19:43;20.00;37.40
30148;DHT22;16960;49.404;8.248;2023-04-08T03:22:11;20.00;37.40
30148;DHT22;16960;49.404;8.248;2023-04-08T03:24:39;20.00;37.40
30148;DHT22;16960;49.404;8.248;2023-04-08T03:27:07;20.00;37.40
30148;DHT22;16960;49.404;8.248;2023-04-08T03:29:34;20.00;37.40
30148;DHT22;16960;49.404;8.248;2023-04-08T03:32:00;20.00;37.40
30148;DHT22;16960;49.404;8.248;2023-04-08T03:34:27;20.10;37.40
30148;DHT22;16960;49.404;8.248;2023-04-08T03:36:54;20.00;37.40
30148;DHT22;16960;49.404;8.248;2023-04-08T03:39:21;20.00;37.30
30148;DHT22;16960;49.404;8.248;2023-04-08T03:41:49;20.00;37.30
30148;DHT22;16960;49.404;8.248;2023-04-08T03:44:16;20.00;37.40
30148;DHT22;16960;49.404;8.248;2023-04-08T03:46:43;20.00;37.40
30148;DHT22;16960;49.404;8.248;2023-04-08T03:49:10;20.00;37.40
30148;DHT22;16960;49.404;8.248;2023-04-08T03:51:37;20.00;37.40
30148;DHT22;16960;49.404;8.248;2023-04-08T03:54:04;20.00;37.40
30148;DHT22;16960;49.404;8.248;2023-04-08T03:56:32;20.00;37.40
30148;DHT22;16960;49.404;8.248;2023-04-08T03:59:00;20.00;37.40
30148;DHT22;16960;49.404;8.248;2023-04-08T04:01:27;20.00;37.40
30148;DHT22;16960;49.404;8.248;2023-04-08T04:03:55;20.00;37.40
30148;DHT22;16960;49.404;8.248;2023-04-08T04:06:22;20.00;37.40
30148;DHT22;16960;49.404;8.248;2023-04-08T04:08:49;19.90;37.40
30148;DHT22;16960;49.404;8.248;2023-04-08T04:11:16;19.90;37.40
30148;DHT22;16960;49.404;8.248;2023-04-08T04:13:42;19.90;37.40
30148;DHT22;16960;49.404;8.248;2023-04-08T04:16:11;20.00;37.40
30148;DHT22;16960;49.404;8.248;2023-04-08T04:18:37;20.00;37.40
30148;DHT22;16960;49.404;8.248;2023-04-08T04:21:05;19.90;37.40
30148;DHT22;16960;49.404;8.248;2023-04-08T04:23:32;20.00;37.40
30148;DHT22;16960;49.404;8.248;2023-04-08T04:25:59;20.00;37.40
30148;DHT22;16960;49.404;8.248;2023-04-08T04:28:26;19.90;37.40
30148;DHT22;16960;49.404;8.248;2023-04-08T04:30:53;20.00;37.40
30148;DHT22;16960;49.404;8.248;2023-04-08T04:33:21;19.90;37.40
30148;DHT22;16960;49.404;8.248;2023-04-08T04:35:48;19.90;37.40
30148;DHT22;16960;49.404;8.248;2023-04-08T04:38:15;19.90;37.40
30148;DHT22;16960;49.404;8.248;2023-04-08T04:40:42;19.90;37.40
30148;DHT22;16960;49.404;8.248;2023-04-08T04:43:10;19.90;37.40
30148;DHT22;16960;49.404;8.248;2023-04-08T04:45:36;20.00;37.40
30148;DHT22;16960;49.404;8.248;2023-04-08T04:48:04;20.00;37.40
30148;DHT22;16960;49.404;8.248;2023-04-08T04:50:32;20.00;37.30
30148;DHT22;16960;49.404;8.248;2023-04-08T04:52:59;20.10;37.40
30148;DHT22;16960;49.404;8.248;2023-04-08T04:55:26;20.10;37.40
30148;DHT22;16960;49.404;8.248;2023-04-08T04:57:53;20.10;37.40
30148;DHT22;16960;49.404;8.248;2023-04-08T05:00:20;20.10;37.40
30148;DHT22;16960;49.404;8.248;2023-04-08T05:02:47;20.10;37.40
30148;DHT22;16960;49.404;8.248;2023-04-08T05:05:14;20.20;37.40
30148;DHT22;16960;49.404;8.248;2023-04-08T05:07:42;20.20;37.30
30148;DHT22;16960;49.404;8.248;2023-04-08T05:10:10;20.20;37.30
30148;DHT22;16960;49.404;8.248;2023-04-08T05:12:36;20.30;37.40
30148;DHT22;16960;49.404;8.248;2023-04-08T05:15:04;20.30;37.40
30148;DHT22;16960;49.404;8.248;2023-04-08T05:17:31;20.30;37.30
30148;DHT22;16960;49.404;8.248;2023-04-08T05:19:58;20.30;37.30
30148;DHT22;16960;49.404;8.248;2023-04-08T05:22:25;20.30;37.30
30148;DHT22;16960;49.404;8.248;2023-04-08T05:24:54;20.40;37.30
30148;DHT22;16960;49.404;8.248;2023-04-08T05:27:20;20.40;37.30
30148;DHT22;16960;49.404;8.248;2023-04-08T05:29:47;20.40;37.20
30148;DHT22;16960;49.404;8.248;2023-04-08T05:32:15;20.40;37.80
30148;DHT22;16960;49.404;8.248;2023-04-08T05:34:42;20.40;37.20
30148;DHT22;16960;49.404;8.248;2023-04-08T05:37:09;20.40;37.10
30148;DHT22;16960;49.404;8.248;2023-04-08T05:39:36;20.40;37.10
30148;DHT22;16960;49.404;8.248;2023-04-08T05:42:04;20.50;37.20
30148;DHT22;16960;49.404;8.248;2023-04-08T05:44:31;20.50;37.20
30148;DHT22;16960;49.404;8.248;2023-04-08T05:46:58;20.50;37.20
30148;DHT22;16960;49.404;8.248;2023-04-08T05:49:25;20.50;37.20
30148;DHT22;16960;49.404;8.248;2023-04-08T05:51:52;20.60;37.10
30148;DHT22;16960;49.404;8.248;2023-04-08T05:54:19;20.60;37.10
30148;DHT22;16960;49.404;8.248;2023-04-08T05:56:46;20.60;37.10
30148;DHT22;16960;49.404;8.248;2023-04-08T05:59:14;20.60;37.10
30148;DHT22;16960;49.404;8.248;2023-04-08T06:01:41;20.60;37.00
30148;DHT22;16960;49.404;8.248;2023-04-08T06:04:08;20.70;37.10
30148;DHT22;16960;49.404;8.248;2023-04-08T06:06:36;20.70;37.00
30148;DHT22;16960;49.404;8.248;2023-04-08T06:09:04;20.70;37.00
30148;DHT22;16960;49.404;8.248;2023-04-08T06:11:31;20.70;37.00
30148;DHT22;16960;49.404;8.248;2023-04-08T06:13:58;20.70;37.00
30148;DHT22;16960;49.404;8.248;2023-04-08T06:16:26;20.70;37.00
30148;DHT22;16960;49.404;8.248;2023-04-08T06:18:53;20.80;37.00
30148;DHT22;16960;49.404;8.248;2023-04-08T06:21:20;20.80;37.00
30148;DHT22;16960;49.404;8.248;2023-04-08T06:23:47;20.80;37.10
30148;DHT22;16960;49.404;8.248;2023-04-08T06:26:14;20.80;37.00
30148;DHT22;16960;49.404;8.248;2023-04-08T06:28:41;20.80;37.00
30148;DHT22;16960;49.404;8.248;2023-04-08T06:31:08;20.80;37.00
30148;DHT22;16960;49.404;8.248;2023-04-08T06:33:36;20.80;37.10
30148;DHT22;16960;49.404;8.248;2023-04-08T06:36:05;20.80;37.10
30148;DHT22;16960;49.404;8.248;2023-04-08T06:38:32;20.80;37.10
30148;DHT22;16960;49.404;8.248;2023-04-08T06:41:02;20.90;37.10
30148;DHT22;16960;49.404;8.248;2023-04-08T06:43:30;20.90;37.10
30148;DHT22;16960;49.404;8.248;2023-04-08T06:45:57;20.90;37.10
30148;DHT22;16960;49.404;8.248;2023-04-08T06:48:24;20.90;37.10
30148;DHT22;16960;49.404;8.248;2023-04-08T06:50:55;20.90;37.30
30148;DHT22;16960;49.404;8.248;2023-04-08T06:53:22;20.90;37.20
30148;DHT22;16960;49.404;8.248;2023-04-08T06:55:50;20.90;37.20
30148;DHT22;16960;49.404;8.248;2023-04-08T06:58:17;20.90;37.20
30148;DHT22;16960;49.404;8.248;2023-04-08T07:00:44;21.00;37.10
30148;DHT22;16960;49.404;8.248;2023-04-08T07:03:11;21.00;37.00
30148;DHT22;16960;49.404;8.248;2023-04-08T07:05:38;21.00;37.10
30148;DHT22;16960;49.404;8.248;2023-04-08T07:08:08;21.00;37.00
30148;DHT22;16960;49.404;8.248;2023-04-08T07:10:35;21.00;37.00
30148;DHT22;16960;49.404;8.248;2023-04-08T07:13:02;21.00;36.90
30148;DHT22;16960;49.404;8.248;2023-04-08T07:15:29;21.00;36.90
30148;DHT22;16960;49.404;8.248;2023-04-08T07:17:56;21.00;36.90
30148;DHT22;16960;49.404;8.248;2023-04-08T07:20:23;21.00;36.90
30148;DHT22;16960;49.404;8.248;2023-04-08T07:22:50;21.00;36.90
30148;DHT22;16960;49.404;8.248;2023-04-08T07:25:19;21.00;36.90
30148;DHT22;16960;49.404;8.248;2023-04-08T07:27:46;21.00;36.90
30148;DHT22;16960;49.404;8.248;2023-04-08T07:30:13;21.00;36.90
30148;DHT22;16960;49.404;8.248;2023-04-08T07:32:40;21.00;36.90
30148;DHT22;16960;49.404;8.248;2023-04-08T07:35:07;21.00;36.90
30148;DHT22;16960;49.404;8.248;2023-04-08T07:37:34;21.00;36.90
30148;DHT22;16960;49.404;8.248;2023-04-08T07:40:01;21.10;37.00
30148;DHT22;16960;49.404;8.248;2023-04-08T07:42:29;21.00;36.90
30148;DHT22;16960;49.404;8.248;2023-04-08T07:44:56;21.00;36.90
30148;DHT22;16960;49.404;8.248;2023-04-08T07:47:23;21.00;36.80
30148;DHT22;16960;49.404;8.248;2023-04-08T07:49:50;21.00;36.90
30148;DHT22;16960;49.404;8.248;2023-04-08T07:52:17;21.00;36.80
30148;DHT22;16960;49.404;8.248;2023-04-08T07:54:44;21.00;36.80
30148;DHT22;16960;49.404;8.248;2023-04-08T07:57:10;21.10;36.90
30148;DHT22;16960;49.404;8.248;2023-04-08T07:59:39;21.10;37.00
30148;DHT22;16960;49.404;8.248;2023-04-08T08:02:06;21.00;36.90
30148;DHT22;16960;49.404;8.248;2023-04-08T08:04:33;21.00;36.80
30148;DHT22;16960;49.404;8.248;2023-04-08T08:06:59;21.00;36.90
30148;DHT22;16960;49.404;8.248;2023-04-08T08:09:26;21.00;36.90
30148;DHT22;16960;49.404;8.248;2023-04-08T08:11:53;21.00;36.80
30148;DHT22;16960;49.404;8.248;2023-04-08T08:14:20;21.00;36.80
30148;DHT22;16960;49.404;8.248;2023-04-08T08:16:48;21.00;36.80
30148;DHT22;16960;49.404;8.248;2023-04-08T08:19:15;21.10;36.90
30148;DHT22;16960;49.404;8.248;2023-04-08T08:21:42;21.00;36.80
30148;DHT22;16960;49.404;8.248;2023-04-08T08:24:10;21.00;36.90
30148;DHT22;16960;49.404;8.248;2023-04-08T08:26:37;21.00;36.90
30148;DHT22;16960;49.404;8.248;2023-04-08T08:29:04;21.00;37.00
30148;DHT22;16960;49.404;8.248;2023-04-08T08:31:33;21.00;37.10
30148;DHT22;16960;49.404;8.248;2023-04-08T08:34:01;21.00;37.10
30148;DHT22;16960;49.404;8.248;2023-04-08T08:36:28;21.00;37.10
30148;DHT22;16960;49.404;8.248;2023-04-08T08:38:56;21.00;37.10
30148;DHT22;16960;49.404;8.248;2023-04-08T08:41:23;21.00;37.10
30148;DHT22;16960;49.404;8.248;2023-04-08T08:43:51;21.00;37.10
30148;DHT22;16960;49.404;8.248;2023-04-08T08:46:18;21.00;37.20
30148;DHT22;16960;49.404;8.248;2023-04-08T08:48:46;21.00;37.10
30148;DHT22;16960;49.404;8.248;2023-04-08T08:51:15;21.00;37.20
30148;DHT22;16960;49.404;8.248;2023-04-08T08:53:42;21.00;37.20
30148;DHT22;16960;49.404;8.248;2023-04-08T08:56:11;21.00;37.20
30148;DHT22;16960;49.404;8.248;2023-04-08T08:58:38;21.00;37.20
30148;DHT22;16960;49.404;8.248;2023-04-08T09:01:32;21.00;37.20
30148;DHT22;16960;49.404;8.248;2023-04-08T09:04:11;21.00;37.20
30148;DHT22;16960;49.404;8.248;2023-04-08T09:06:42;21.00;37.20
30148;DHT22;16960;49.404;8.248;2023-04-08T09:09:09;21.00;37.20
30148;DHT22;16960;49.404;8.248;2023-04-08T09:11:37;21.00;37.20
30148;DHT22;16960;49.404;8.248;2023-04-08T09:14:16;21.10;37.20
30148;DHT22;16960;49.404;8.248;2023-04-08T09:16:44;21.10;37.20
30148;DHT22;16960;49.404;8.248;2023-04-08T09:19:12;21.10;37.30
30148;DHT22;16960;49.404;8.248;2023-04-08T09:21:41;21.20;37.40
30148;DHT22;16960;49.404;8.248;2023-04-08T09:24:08;21.20;37.40
30148;DHT22;16960;49.404;8.248;2023-04-08T09:26:36;21.20;37.30
30148;DHT22;16960;49.404;8.248;2023-04-08T09:29:05;21.20;37.60
30148;DHT22;16960;49.404;8.248;2023-04-08T09:31:33;21.30;37.70
30148;DHT22;16960;49.404;8.248;2023-04-08T09:34:09;21.30;37.50
30148;DHT22;16960;49.404;8.248;2023-04-08T09:36:37;21.30;37.50
30148;DHT22;16960;49.404;8.248;2023-04-08T09:39:06;21.30;37.40
30148;DHT22;16960;49.404;8.248;2023-04-08T09:41:34;21.40;37.40
30148;DHT22;16960;49.404;8.248;2023-04-08T09:44:03;21.40;37.40
30148;DHT22;16960;49.404;8.248;2023-04-08T09:46:35;21.40;37.40
30148;DHT22;16960;49.404;8.248;2023-04-08T09:49:05;21.40;37.40
30148;DHT22;16960;49.404;8.248;2023-04-08T09:51:40;21.40;37.50
30148;DHT22;16960;49.404;8.248;2023-04-08T09:54:13;21.50;37.40
30148;DHT22;16960;49.404;8.248;2023-04-08T09:56:43;21.50;37.30
30148;DHT22;16960;49.404;8.248;2023-04-08T09:59:14;21.50;37.30
30148;DHT22;16960;49.404;8.248;2023-04-08T10:01:46;21.50;37.20
30148;DHT22;16960;49.404;8.248;2023-04-08T10:04:18;21.50;37.20
30148;DHT22;16960;49.404;8.248;2023-04-08T10:06:49;21.50;37.20
30148;DHT22;16960;49.404;8.248;2023-04-08T10:09:20;21.50;37.10
30148;DHT22;16960;49.404;8.248;2023-04-08T10:11:47;21.50;37.10
30148;DHT22;16960;49.404;8.248;2023-04-08T10:14:15;21.50;37.00
30148;DHT22;16960;49.404;8.248;2023-04-08T10:16:42;21.50;36.90
30148;DHT22;16960;49.404;8.248;2023-04-08T10:19:35;21.50;36.90
30148;DHT22;16960;49.404;8.248;2023-04-08T10:22:46;21.50;36.90
30148;DHT22;16960;49.404;8.248;2023-04-08T10:25:31;21.60;36.80
30148;DHT22;16960;49.404;8.248;2023-04-08T10:27:58;21.50;36.80
30148;DHT22;16960;49.404;8.248;2023-04-08T10:30:44;21.60;36.70
30148;DHT22;16960;49.404;8.248;2023-04-08T10:33:13;21.60;36.70
30148;DHT22;16960;49.404;8.248;2023-04-08T10:35:42;21.60;36.60
30148;DHT22;16960;49.404;8.248;2023-04-08T10:38:11;21.70;36.60
30148;DHT22;16960;49.404;8.248;2023-04-08T10:40:40;21.70;36.50
30148;DHT22;16960;49.404;8.248;2023-04-08T10:43:08;21.80;36.40
30148;DHT22;16960;49.404;8.248;2023-04-08T10:45:36;21.80;36.30
30148;DHT22;16960;49.404;8.248;2023-04-08T10:48:16;21.80;36.30
30148;DHT22;16960;49.404;8.248;2023-04-08T10:50:44;21.80;36.20
30148;DHT22;16960;49.404;8.248;2023-04-08T10:53:11;21.70;36.10
30148;DHT22;16960;49.404;8.248;2023-04-08T10:55:39;21.70;36.10
30148;DHT22;16960;49.404;8.248;2023-04-08T10:58:09;21.70;36.20
30148;DHT22;16960;49.404;8.248;2023-04-08T11:00:38;21.70;36.10
30148;DHT22;16960;49.404;8.248;2023-04-08T11:03:07;21.70;36.20
30148;DHT22;16960;49.404;8.248;2023-04-08T11:05:34;21.70;36.30
30148;DHT22;16960;49.404;8.248;2023-04-08T11:08:03;21.70;36.90
30148;DHT22;16960;49.404;8.248;2023-04-08T11:10:32;21.70;36.30
30148;DHT22;16960;49.404;8.248;2023-04-08T11:13:06;21.70;36.30
30148;DHT22;16960;49.404;8.248;2023-04-08T11:15:34;21.70;36.40
30148;DHT22;16960;49.404;8.248;2023-04-08T11:18:02;21.70;36.50
30148;DHT22;16960;49.404;8.248;2023-04-08T11:20:29;21.70;36.50
30148;DHT22;16960;49.404;8.248;2023-04-08T11:22:59;21.70;36.60
30148;DHT22;16960;49.404;8.248;2023-04-08T11:25:26;21.70;36.60
30148;DHT22;16960;49.404;8.248;2023-04-08T11:27:53;21.70;36.60
30148;DHT22;16960;49.404;8.248;2023-04-08T11:30:22;21.70;36.60
30148;DHT22;16960;49.404;8.248;2023-04-08T11:32:50;21.70;36.50
30148;DHT22;16960;49.404;8.248;2023-04-08T11:35:17;21.80;36.50
30148;DHT22;16960;49.404;8.248;2023-04-08T11:37:44;21.80;36.50
30148;DHT22;16960;49.404;8.248;2023-04-08T11:40:18;21.80;36.50
30148;DHT22;16960;49.404;8.248;2023-04-08T11:42:45;21.80;36.50
30148;DHT22;16960;49.404;8.248;2023-04-08T11:45:13;21.80;36.50
30148;DHT22;16960;49.404;8.248;2023-04-08T11:47:42;21.80;36.50
30148;DHT22;16960;49.404;8.248;2023-04-08T11:50:09;21.90;36.50
30148;DHT22;16960;49.404;8.248;2023-04-08T11:52:43;21.90;36.50
30148;DHT22;16960;49.404;8.248;2023-04-08T11:55:11;21.90;36.50
30148;DHT22;16960;49.404;8.248;2023-04-08T11:57:38;22.00;36.40
30148;DHT22;16960;49.404;8.248;2023-04-08T12:00:06;22.00;36.40
30148;DHT22;16960;49.404;8.248;2023-04-08T12:02:34;22.00;36.30
30148;DHT22;16960;49.404;8.248;2023-04-08T12:05:02;22.00;36.30
30148;DHT22;16960;49.404;8.248;2023-04-08T12:07:29;22.00;36.30
30148;DHT22;16960;49.404;8.248;2023-04-08T12:09:56;22.10;36.30
30148;DHT22;16960;49.404;8.248;2023-04-08T12:12:23;22.10;36.30
30148;DHT22;16960;49.404;8.248;2023-04-08T12:14:50;22.20;36.20
30148;DHT22;16960;49.404;8.248;2023-04-08T12:17:17;22.20;36.10
30148;DHT22;16960;49.404;8.248;2023-04-08T12:19:45;22.30;36.00
30148;DHT22;16960;49.404;8.248;2023-04-08T12:22:13;22.40;35.90
30148;DHT22;16960;49.404;8.248;2023-04-08T12:24:41;22.50;35.90
30148;DHT22;16960;49.404;8.248;2023-04-08T12:27:08;22.50;35.70
30148;DHT22;16960;49.404;8.248;2023-04-08T12:29:35;22.50;35.70
30148;DHT22;16960;49.404;8.248;2023-04-08T12:32:02;22.60;35.60
30148;DHT22;16960;49.404;8.248;2023-04-08T12:34:30;22.60;35.60
30148;DHT22;16960;49.404;8.248;2023-04-08T12:36:57;22.60;35.60
30148;DHT22;16960;49.404;8.248;2023-04-08T12:39:25;22.60;35.60
30148;DHT22;16960;49.404;8.248;2023-04-08T12:41:53;22.60;35.60
30148;DHT22;16960;49.404;8.248;2023-04-08T12:44:20;22.50;35.70
30148;DHT22;16960;49.404;8.248;2023-04-08T12:46:46;22.50;35.70
30148;DHT22;16960;49.404;8.248;2023-04-08T12:49:13;22.50;35.70
30148;DHT22;16960;49.404;8.248;2023-04-08T12:51:40;22.50;35.70
30148;DHT22;16960;49.404;8.248;2023-04-08T12:54:07;22.50;35.70
30148;DHT22;16960;49.404;8.248;2023-04-08T12:56:36;22.60;35.70
30148;DHT22;16960;49.404;8.248;2023-04-08T12:59:03;22.60;35.70
30148;DHT22;16960;49.404;8.248;2023-04-08T13:01:30;22.60;35.60
30148;DHT22;16960;49.404;8.248;2023-04-08T13:03:57;22.70;35.70
30148;DHT22;16960;49.404;8.248;2023-04-08T13:06:24;22.70;35.60
30148;DHT22;16960;49.404;8.248;2023-04-08T13:08:52;22.70;35.80
30148;DHT22;16960;49.404;8.248;2023-04-08T13:11:19;22.70;35.70
30148;DHT22;16960;49.404;8.248;2023-04-08T13:13:48;22.70;35.70
30148;DHT22;16960;49.404;8.248;2023-04-08T13:16:15;22.70;35.70
30148;DHT22;16960;49.404;8.248;2023-04-08T13:18:42;22.70;35.60
30148;DHT22;16960;49.404;8.248;2023-04-08T13:21:09;22.70;35.70
30148;DHT22;16960;49.404;8.248;2023-04-08T13:23:36;22.70;35.70
30148;DHT22;16960;49.404;8.248;2023-04-08T13:26:03;22.70;35.70
30148;DHT22;16960;49.404;8.248;2023-04-08T13:28:31;22.80;35.60
30148;DHT22;16960;49.404;8.248;2023-04-08T13:30:59;22.80;35.60
30148;DHT22;16960;49.404;8.248;2023-04-08T13:33:26;22.90;35.60
30148;DHT22;16960;49.404;8.248;2023-04-08T13:35:53;22.90;35.60
30148;DHT22;16960;49.404;8.248;2023-04-08T13:38:20;22.90;35.60
30148;DHT22;16960;49.404;8.248;2023-04-08T13:40:47;22.90;35.50
30148;DHT22;16960;49.404;8.248;2023-04-08T13:43:14;22.90;35.50
30148;DHT22;16960;49.404;8.248;2023-04-08T13:45:41;22.90;35.50
30148;DHT22;16960;49.404;8.248;2023-04-08T13:48:10;22.90;35.50
30148;DHT22;16960;49.404;8.248;2023-04-08T13:50:38;22.90;35.40
30148;DHT22;16960;49.404;8.248;2023-04-08T13:53:06;22.90;35.40
30148;DHT22;16960;49.404;8.248;2023-04-08T13:55:33;22.90;35.40
30148;DHT22;16960;49.404;8.248;2023-04-08T13:58:00;23.00;35.30
30148;DHT22;16960;49.404;8.248;2023-04-08T14:00:27;23.00;35.40
30148;DHT22;16960;49.404;8.248;2023-04-08T14:02:54;22.90;35.40
30148;DHT22;16960;49.404;8.248;2023-04-08T14:05:22;23.00;35.40
30148;DHT22;16960;49.404;8.248;2023-04-08T14:07:49;23.00;35.40
30148;DHT22;16960;49.404;8.248;2023-04-08T14:10:16;22.90;35.40
30148;DHT22;16960;49.404;8.248;2023-04-08T14:12:43;22.90;35.40
30148;DHT22;16960;49.404;8.248;2023-04-08T14:15:11;22.90;35.50
30148;DHT22;16960;49.404;8.248;2023-04-08T14:17:38;22.90;35.50
30148;DHT22;16960;49.404;8.248;2023-04-08T14:20:06;22.90;35.50
30148;DHT22;16960;49.404;8.248;2023-04-08T14:22:34;22.90;35.60
30148;DHT22;16960;49.404;8.248;2023-04-08T14:25:01;22.80;35.50
30148;DHT22;16960;49.404;8.248;2023-04-08T14:27:28;22.80;35.60
30148;DHT22;16960;49.404;8.248;2023-04-08T14:29:55;22.80;35.60
30148;DHT22;16960;49.404;8.248;2023-04-08T14:32:22;22.80;35.60
30148;DHT22;16960;49.404;8.248;2023-04-08T14:34:50;22.80;35.60
30148;DHT22;16960;49.404;8.248;2023-04-08T14:37:17;22.80;35.70
30148;DHT22;16960;49.404;8.248;2023-04-08T14:39:45;22.80;36.10
30148;DHT22;16960;49.404;8.248;2023-04-08T14:42:12;22.80;35.80
30148;DHT22;16960;49.404;8.248;2023-04-08T14:44:41;22.80;35.70
30148;DHT22;16960;49.404;8.248;2023-04-08T14:47:08;22.90;36.00
30148;DHT22;16960;49.404;8.248;2023-04-08T14:49:36;22.90;35.90
30148;DHT22;16960;49.404;8.248;2023-04-08T14:52:03;22.90;35.90
30148;DHT22;16960;49.404;8.248;2023-04-08T14:54:30;22.90;35.90
30148;DHT22;16960;49.404;8.248;2023-04-08T14:56:58;22.90;35.90
30148;DHT22;16960;49.404;8.248;2023-04-08T14:59:26;22.90;35.90
30148;DHT22;16960;49.404;8.248;2023-04-08T15:01:53;22.90;35.90
30148;DHT22;16960;49.404;8.248;2023-04-08T15:04:20;22.90;35.90
30148;DHT22;16960;49.404;8.248;2023-04-08T15:06:47;22.90;36.50
30148;DHT22;16960;49.404;8.248;2023-04-08T15:09:14;22.80;36.00
30148;DHT22;16960;49.404;8.248;2023-04-08T15:11:41;22.80;36.00
30148;DHT22;16960;49.404;8.248;2023-04-08T15:14:09;22.80;36.10
30148;DHT22;16960;49.404;8.248;2023-04-08T15:16:36;22.80;36.10
30148;DHT22;16960;49.404;8.248;2023-04-08T15:19:03;22.80;36.00
30148;DHT22;16960;49.404;8.248;2023-04-08T15:21:30;22.80;36.00
30148;DHT22;16960;49.404;8.248;2023-04-08T15:23:57;22.80;36.00
30148;DHT22;16960;49.404;8.248;2023-04-08T15:26:24;22.80;36.00
30148;DHT22;16960;49.404;8.248;2023-04-08T15:28:53;22.90;36.00
30148;DHT22;16960;49.404;8.248;2023-04-08T15:31:23;22.90;36.00
30148;DHT22;16960;49.404;8.248;2023-04-08T15:33:50;22.90;36.00
30148;DHT22;16960;49.404;8.248;2023-04-08T15:36:17;22.90;36.00